sensor_id;sensor_type;location;lat;lon;timestamp;P1;durP1;ratioP1;P2;durP2;ratioP2
59263;SDS011;45030;42.720;23.344;2023-08-06T00:02:20;5.78;;;3.58;;
59263;SDS011;45030;42.720;23.344;2023-08-06T00:04:45;9.30;;;5.28;;
59263;SDS011;45030;42.720;23.344;2023-08-06T00:07:11;8.85;;;5.53;;
59263;SDS011;45030;42.720;23.344;2023-08-06T00:09:36;7.82;;;5.18;;
59263;SDS011;45030;42.720;23.344;2023-08-06T00:12:01;9.48;;;5.50;;
59263;SDS011;45030;42.720;23.344;2023-08-06T00:14:26;8.25;;;5.50;;
59263;SDS011;45030;42.720;23.344;2023-08-06T00:16:51;8.90;;;5.07;;
59263;SDS011;45030;42.720;23.344;2023-08-06T00:19:17;7.93;;;5.10;;
59263;SDS011;45030;42.720;23.344;2023-08-06T00:21:42;6.53;;;3.50;;
59263;SDS011;45030;42.720;23.344;2023-08-06T00:24:07;5.43;;;3.40;;
59263;SDS011;45030;42.720;23.344;2023-08-06T00:26:32;6.95;;;3.92;;
59263;SDS011;45030;42.720;23.344;2023-08-06T00:28:58;6.47;;;3.08;;
59263;SDS011;45030;42.720;23.344;2023-08-06T00:31:23;5.43;;;2.97;;
59263;SDS011;45030;42.720;23.344;2023-08-06T00:33:48;4.63;;;2.80;;
59263;SDS011;45030;42.720;23.344;2023-08-06T00:36:13;7.63;;;3.05;;
59263;SDS011;45030;42.720;23.344;2023-08-06T00:38:39;5.53;;;3.28;;
59263;SDS011;45030;42.720;23.344;2023-08-06T00:41:04;7.07;;;3.30;;
59263;SDS011;45030;42.720;23.344;2023-08-06T00:43:29;5.13;;;2.90;;
59263;SDS011;45030;42.720;23.344;2023-08-06T00:45:54;6.55;;;3.08;;
59263;SDS011;45030;42.720;23.344;2023-08-06T00:48:20;5.40;;;3.17;;
59263;SDS011;45030;42.720;23.344;2023-08-06T00:50:46;7.28;;;3.25;;
59263;SDS011;45030;42.720;23.344;2023-08-06T00:53:11;5.43;;;3.35;;
59263;SDS011;45030;42.720;23.344;2023-08-06T00:55:36;7.05;;;3.95;;
59263;SDS011;45030;42.720;23.344;2023-08-06T00:58:02;7.93;;;4.60;;
59263;SDS011;45030;42.720;23.344;2023-08-06T01:00:27;7.50;;;4.10;;
59263;SDS011;45030;42.720;23.344;2023-08-06T01:02:53;7.65;;;3.80;;
59263;SDS011;45030;42.720;23.344;2023-08-06T01:05:18;7.43;;;4.85;;
59263;SDS011;45030;42.720;23.344;2023-08-06T01:07:51;8.38;;;4.40;;
59263;SDS011;45030;42.720;23.344;2023-08-06T01:10:22;5.80;;;3.35;;
59263;SDS011;45030;42.720;23.344;2023-08-06T01:12:51;6.63;;;3.85;;
59263;SDS011;45030;42.720;23.344;2023-08-06T01:15:24;6.68;;;3.88;;
59263;SDS011;45030;42.720;23.344;2023-08-06T01:17:52;8.23;;;3.40;;
59263;SDS011;45030;42.720;23.344;2023-08-06T01:20:18;6.03;;;3.00;;
59263;SDS011;45030;42.720;23.344;2023-08-06T01:22:43;5.38;;;2.58;;
59263;SDS011;45030;42.720;23.344;2023-08-06T01:25:09;4.63;;;3.20;;
59263;SDS011;45030;42.720;23.344;2023-08-06T01:27:48;3.70;;;2.60;;
59263;SDS011;45030;42.720;23.344;2023-08-06T01:30:17;5.07;;;2.78;;
59263;SDS011;45030;42.720;23.344;2023-08-06T01:32:46;4.38;;;2.83;;
59263;SDS011;45030;42.720;23.344;2023-08-06T01:35:14;9.32;;;4.00;;
59263;SDS011;45030;42.720;23.344;2023-08-06T01:37:40;6.30;;;3.53;;
59263;SDS011;45030;42.720;23.344;2023-08-06T01:40:09;9.00;;;4.35;;
59263;SDS011;45030;42.720;23.344;2023-08-06T01:42:34;6.72;;;3.97;;
59263;SDS011;45030;42.720;23.344;2023-08-06T01:45:00;6.03;;;4.13;;
59263;SDS011;45030;42.720;23.344;2023-08-06T01:47:25;7.03;;;3.58;;
59263;SDS011;45030;42.720;23.344;2023-08-06T01:49:50;7.25;;;3.90;;
59263;SDS011;45030;42.720;23.344;2023-08-06T01:52:15;8.18;;;4.55;;
59263;SDS011;45030;42.720;23.344;2023-08-06T01:54:41;7.65;;;3.78;;
59263;SDS011;45030;42.720;23.344;2023-08-06T01:57:06;8.20;;;4.72;;
59263;SDS011;45030;42.720;23.344;2023-08-06T01:59:31;9.02;;;4.30;;
59263;SDS011;45030;42.720;23.344;2023-08-06T02:01:56;7.40;;;3.47;;
59263;SDS011;45030;42.720;23.344;2023-08-06T02:04:22;8.70;;;3.10;;
59263;SDS011;45030;42.720;23.344;2023-08-06T02:06:47;6.28;;;4.07;;
59263;SDS011;45030;42.720;23.344;2023-08-06T02:09:12;5.50;;;3.22;;
59263;SDS011;45030;42.720;23.344;2023-08-06T02:11:37;7.32;;;3.92;;
59263;SDS011;45030;42.720;23.344;2023-08-06T02:14:03;5.38;;;3.33;;
59263;SDS011;45030;42.720;23.344;2023-08-06T02:16:28;6.35;;;3.30;;
59263;SDS011;45030;42.720;23.344;2023-08-06T02:18:53;4.47;;;2.72;;
59263;SDS011;45030;42.720;23.344;2023-08-06T02:21:18;8.03;;;3.53;;
59263;SDS011;45030;42.720;23.344;2023-08-06T02:23:43;5.38;;;2.70;;
59263;SDS011;45030;42.720;23.344;2023-08-06T02:26:09;7.43;;;3.38;;
59263;SDS011;45030;42.720;23.344;2023-08-06T02:28:34;5.32;;;3.28;;
59263;SDS011;45030;42.720;23.344;2023-08-06T02:30:59;7.15;;;3.83;;
59263;SDS011;45030;42.720;23.344;2023-08-06T02:33:24;11.63;;;3.67;;
59263;SDS011;45030;42.720;23.344;2023-08-06T02:35:50;5.38;;;3.45;;
59263;SDS011;45030;42.720;23.344;2023-08-06T02:38:15;7.13;;;3.92;;
59263;SDS011;45030;42.720;23.344;2023-08-06T02:40:44;7.07;;;3.90;;
59263;SDS011;45030;42.720;23.344;2023-08-06T02:43:10;7.50;;;2.92;;
59263;SDS011;45030;42.720;23.344;2023-08-06T02:45:35;5.97;;;3.55;;
59263;SDS011;45030;42.720;23.344;2023-08-06T02:48:00;7.32;;;3.35;;
59263;SDS011;45030;42.720;23.344;2023-08-06T02:50:27;6.03;;;3.13;;
59263;SDS011;45030;42.720;23.344;2023-08-06T02:52:52;11.50;;;3.73;;
59263;SDS011;45030;42.720;23.344;2023-08-06T02:55:18;8.80;;;3.58;;
59263;SDS011;45030;42.720;23.344;2023-08-06T02:57:43;7.13;;;3.97;;
59263;SDS011;45030;42.720;23.344;2023-08-06T03:00:08;7.07;;;3.83;;
59263;SDS011;45030;42.720;23.344;2023-08-06T03:02:34;7.05;;;3.70;;
59263;SDS011;45030;42.720;23.344;2023-08-06T03:04:59;8.20;;;4.40;;
59263;SDS011;45030;42.720;23.344;2023-08-06T03:07:24;7.95;;;3.97;;
59263;SDS011;45030;42.720;23.344;2023-08-06T03:09:49;7.30;;;3.60;;
59263;SDS011;45030;42.720;23.344;2023-08-06T03:12:14;10.57;;;4.87;;
59263;SDS011;45030;42.720;23.344;2023-08-06T03:14:40;11.10;;;5.60;;
59263;SDS011;45030;42.720;23.344;2023-08-06T03:17:05;6.75;;;4.25;;
59263;SDS011;45030;42.720;23.344;2023-08-06T03:19:30;7.35;;;4.68;;
59263;SDS011;45030;42.720;23.344;2023-08-06T03:21:55;13.93;;;7.20;;
59263;SDS011;45030;42.720;23.344;2023-08-06T03:24:21;11.35;;;5.18;;
59263;SDS011;45030;42.720;23.344;2023-08-06T03:26:46;9.82;;;5.38;;
59263;SDS011;45030;42.720;23.344;2023-08-06T03:29:11;11.90;;;6.38;;
59263;SDS011;45030;42.720;23.344;2023-08-06T03:31:36;11.63;;;6.50;;
59263;SDS011;45030;42.720;23.344;2023-08-06T03:34:02;9.07;;;5.23;;
59263;SDS011;45030;42.720;23.344;2023-08-06T03:36:27;9.27;;;5.78;;
59263;SDS011;45030;42.720;23.344;2023-08-06T03:38:52;11.50;;;6.15;;
59263;SDS011;45030;42.720;23.344;2023-08-06T03:41:17;13.20;;;7.80;;
59263;SDS011;45030;42.720;23.344;2023-08-06T03:43:43;11.48;;;7.28;;
59263;SDS011;45030;42.720;23.344;2023-08-06T03:46:08;14.90;;;10.60;;
59263;SDS011;45030;42.720;23.344;2023-08-06T03:48:33;15.43;;;10.57;;
59263;SDS011;45030;42.720;23.344;2023-08-06T03:50:58;14.93;;;9.23;;
59263;SDS011;45030;42.720;23.344;2023-08-06T03:53:25;13.88;;;9.13;;
59263;SDS011;45030;42.720;23.344;2023-08-06T03:55:51;14.55;;;10.63;;
59263;SDS011;45030;42.720;23.344;2023-08-06T03:58:16;12.82;;;8.82;;
59263;SDS011;45030;42.720;23.344;2023-08-06T04:00:41;14.20;;;8.97;;
59263;SDS011;45030;42.720;23.344;2023-08-06T04:03:06;10.48;;;7.88;;
59263;SDS011;45030;42.720;23.344;2023-08-06T04:05:32;10.73;;;7.43;;
59263;SDS011;45030;42.720;23.344;2023-08-06T04:07:57;9.75;;;7.38;;
59263;SDS011;45030;42.720;23.344;2023-08-06T04:10:23;10.88;;;7.13;;
59263;SDS011;45030;42.720;23.344;2023-08-06T04:12:48;8.20;;;6.03;;
59263;SDS011;45030;42.720;23.344;2023-08-06T04:15:13;7.83;;;4.90;;
59263;SDS011;45030;42.720;23.344;2023-08-06T04:17:38;7.72;;;4.40;;
59263;SDS011;45030;42.720;23.344;2023-08-06T04:20:04;8.27;;;4.20;;
59263;SDS011;45030;42.720;23.344;2023-08-06T04:22:29;8.70;;;4.82;;
59263;SDS011;45030;42.720;23.344;2023-08-06T04:24:55;7.70;;;4.57;;
59263;SDS011;45030;42.720;23.344;2023-08-06T04:27:20;8.63;;;5.22;;
59263;SDS011;45030;42.720;23.344;2023-08-06T04:29:45;7.03;;;4.53;;
59263;SDS011;45030;42.720;23.344;2023-08-06T04:32:10;6.00;;;3.83;;
59263;SDS011;45030;42.720;23.344;2023-08-06T04:34:36;7.20;;;4.75;;
59263;SDS011;45030;42.720;23.344;2023-08-06T04:37:02;6.68;;;4.03;;
59263;SDS011;45030;42.720;23.344;2023-08-06T04:39:27;6.25;;;4.20;;
59263;SDS011;45030;42.720;23.344;2023-08-06T04:41:52;8.18;;;4.95;;
59263;SDS011;45030;42.720;23.344;2023-08-06T04:44:18;7.40;;;4.18;;
59263;SDS011;45030;42.720;23.344;2023-08-06T04:46:43;5.80;;;3.30;;
59263;SDS011;45030;42.720;23.344;2023-08-06T04:49:08;5.90;;;3.60;;
59263;SDS011;45030;42.720;23.344;2023-08-06T04:51:33;4.80;;;3.33;;
59263;SDS011;45030;42.720;23.344;2023-08-06T04:53:59;6.57;;;3.58;;
59263;SDS011;45030;42.720;23.344;2023-08-06T04:56:24;6.03;;;4.10;;
59263;SDS011;45030;42.720;23.344;2023-08-06T04:58:49;7.25;;;3.72;;
59263;SDS011;45030;42.720;23.344;2023-08-06T05:01:15;6.07;;;3.58;;
59263;SDS011;45030;42.720;23.344;2023-08-06T05:03:40;5.77;;;3.67;;
59263;SDS011;45030;42.720;23.344;2023-08-06T05:06:05;4.28;;;3.22;;
59263;SDS011;45030;42.720;23.344;2023-08-06T05:08:30;5.63;;;3.10;;
59263;SDS011;45030;42.720;23.344;2023-08-06T05:10:56;4.57;;;2.92;;
59263;SDS011;45030;42.720;23.344;2023-08-06T05:13:21;5.75;;;2.78;;
59263;SDS011;45030;42.720;23.344;2023-08-06T05:15:46;4.45;;;2.70;;
59263;SDS011;45030;42.720;23.344;2023-08-06T05:18:12;3.93;;;1.80;;
59263;SDS011;45030;42.720;23.344;2023-08-06T05:20:38;4.93;;;1.80;;
59263;SDS011;45030;42.720;23.344;2023-08-06T05:23:03;3.70;;;2.20;;
59263;SDS011;45030;42.720;23.344;2023-08-06T05:25:28;4.22;;;2.92;;
59263;SDS011;45030;42.720;23.344;2023-08-06T05:27:53;4.15;;;3.03;;
59263;SDS011;45030;42.720;23.344;2023-08-06T05:30:19;5.25;;;3.42;;
59263;SDS011;45030;42.720;23.344;2023-08-06T05:32:44;5.00;;;3.00;;
59263;SDS011;45030;42.720;23.344;2023-08-06T05:35:09;3.70;;;2.95;;
59263;SDS011;45030;42.720;23.344;2023-08-06T05:37:34;4.35;;;2.33;;
59263;SDS011;45030;42.720;23.344;2023-08-06T05:40:00;4.55;;;2.53;;
59263;SDS011;45030;42.720;23.344;2023-08-06T05:42:26;3.85;;;2.35;;
59263;SDS011;45030;42.720;23.344;2023-08-06T05:44:51;4.10;;;2.43;;
59263;SDS011;45030;42.720;23.344;2023-08-06T05:47:17;4.47;;;2.60;;
59263;SDS011;45030;42.720;23.344;2023-08-06T05:49:42;3.60;;;2.78;;
59263;SDS011;45030;42.720;23.344;2023-08-06T05:52:07;3.10;;;2.30;;
59263;SDS011;45030;42.720;23.344;2023-08-06T05:54:33;3.78;;;2.83;;
59263;SDS011;45030;42.720;23.344;2023-08-06T05:56:58;5.25;;;4.03;;
59263;SDS011;45030;42.720;23.344;2023-08-06T05:59:23;21.17;;;13.83;;
59263;SDS011;45030;42.720;23.344;2023-08-06T06:01:49;5.15;;;3.72;;
59263;SDS011;45030;42.720;23.344;2023-08-06T06:04:14;5.00;;;3.42;;
59263;SDS011;45030;42.720;23.344;2023-08-06T06:06:39;5.55;;;3.90;;
59263;SDS011;45030;42.720;23.344;2023-08-06T06:09:06;5.13;;;3.10;;
59263;SDS011;45030;42.720;23.344;2023-08-06T06:11:32;2.92;;;2.22;;
59263;SDS011;45030;42.720;23.344;2023-08-06T06:13:57;5.50;;;3.22;;
59263;SDS011;45030;42.720;23.344;2023-08-06T06:16:22;3.10;;;2.33;;
59263;SDS011;45030;42.720;23.344;2023-08-06T06:18:47;5.73;;;4.83;;
59263;SDS011;45030;42.720;23.344;2023-08-06T06:21:13;5.30;;;4.28;;
59263;SDS011;45030;42.720;23.344;2023-08-06T06:23:39;5.13;;;4.05;;
59263;SDS011;45030;42.720;23.344;2023-08-06T06:26:04;3.17;;;2.08;;
59263;SDS011;45030;42.720;23.344;2023-08-06T06:28:30;2.73;;;1.83;;
59263;SDS011;45030;42.720;23.344;2023-08-06T06:30:59;2.43;;;1.43;;
59263;SDS011;45030;42.720;23.344;2023-08-06T06:33:25;3.25;;;2.00;;
59263;SDS011;45030;42.720;23.344;2023-08-06T06:35:50;2.30;;;1.40;;
59263;SDS011;45030;42.720;23.344;2023-08-06T06:38:15;2.77;;;1.50;;
59263;SDS011;45030;42.720;23.344;2023-08-06T06:40:40;5.18;;;2.00;;
59263;SDS011;45030;42.720;23.344;2023-08-06T06:43:06;2.15;;;1.10;;
59263;SDS011;45030;42.720;23.344;2023-08-06T06:45:31;2.50;;;1.35;;
59263;SDS011;45030;42.720;23.344;2023-08-06T06:47:56;2.40;;;1.30;;
59263;SDS011;45030;42.720;23.344;2023-08-06T06:50:21;1.00;;;0.70;;
59263;SDS011;45030;42.720;23.344;2023-08-06T06:52:47;3.00;;;1.60;;
59263;SDS011;45030;42.720;23.344;2023-08-06T06:55:12;4.90;;;1.73;;
59263;SDS011;45030;42.720;23.344;2023-08-06T06:57:37;2.70;;;1.63;;
59263;SDS011;45030;42.720;23.344;2023-08-06T07:00:02;1.43;;;1.10;;
59263;SDS011;45030;42.720;23.344;2023-08-06T07:02:28;2.22;;;1.50;;
59263;SDS011;45030;42.720;23.344;2023-08-06T07:04:53;2.13;;;1.23;;
59263;SDS011;45030;42.720;23.344;2023-08-06T07:07:18;2.10;;;1.23;;
59263;SDS011;45030;42.720;23.344;2023-08-06T07:09:44;2.30;;;1.30;;
59263;SDS011;45030;42.720;23.344;2023-08-06T07:12:09;1.40;;;1.10;;
59263;SDS011;45030;42.720;23.344;2023-08-06T07:14:35;2.67;;;1.20;;
59263;SDS011;45030;42.720;23.344;2023-08-06T07:17:00;1.92;;;1.30;;
59263;SDS011;45030;42.720;23.344;2023-08-06T07:19:25;1.73;;;1.20;;
59263;SDS011;45030;42.720;23.344;2023-08-06T07:21:50;2.87;;;1.57;;
59263;SDS011;45030;42.720;23.344;2023-08-06T07:24:15;2.03;;;1.10;;
59263;SDS011;45030;42.720;23.344;2023-08-06T07:26:41;2.70;;;1.50;;
59263;SDS011;45030;42.720;23.344;2023-08-06T07:29:06;3.72;;;1.17;;
59263;SDS011;45030;42.720;23.344;2023-08-06T07:31:31;3.67;;;1.87;;
59263;SDS011;45030;42.720;23.344;2023-08-06T07:33:57;2.55;;;1.35;;
59263;SDS011;45030;42.720;23.344;2023-08-06T07:36:22;3.15;;;2.40;;
59263;SDS011;45030;42.720;23.344;2023-08-06T07:38:47;2.38;;;1.60;;
59263;SDS011;45030;42.720;23.344;2023-08-06T07:41:16;3.03;;;1.75;;
59263;SDS011;45030;42.720;23.344;2023-08-06T07:43:41;2.38;;;1.60;;
59263;SDS011;45030;42.720;23.344;2023-08-06T07:46:07;2.28;;;1.50;;
59263;SDS011;45030;42.720;23.344;2023-08-06T07:48:32;2.40;;;1.52;;
59263;SDS011;45030;42.720;23.344;2023-08-06T07:50:58;3.50;;;1.53;;
59263;SDS011;45030;42.720;23.344;2023-08-06T07:53:24;2.25;;;1.50;;
59263;SDS011;45030;42.720;23.344;2023-08-06T07:55:52;3.13;;;1.45;;
59263;SDS011;45030;42.720;23.344;2023-08-06T07:58:18;3.20;;;2.22;;
59263;SDS011;45030;42.720;23.344;2023-08-06T08:00:43;3.95;;;1.60;;
59263;SDS011;45030;42.720;23.344;2023-08-06T08:03:10;2.28;;;1.33;;
59263;SDS011;45030;42.720;23.344;2023-08-06T08:05:36;2.90;;;1.65;;
59263;SDS011;45030;42.720;23.344;2023-08-06T08:08:01;1.93;;;1.30;;
59263;SDS011;45030;42.720;23.344;2023-08-06T08:10:26;3.67;;;1.75;;
59263;SDS011;45030;42.720;23.344;2023-08-06T08:12:51;2.73;;;1.97;;
59263;SDS011;45030;42.720;23.344;2023-08-06T08:15:17;2.80;;;2.00;;
59263;SDS011;45030;42.720;23.344;2023-08-06T08:17:43;2.80;;;1.70;;
59263;SDS011;45030;42.720;23.344;2023-08-06T08:20:08;3.17;;;1.50;;
59263;SDS011;45030;42.720;23.344;2023-08-06T08:22:34;2.63;;;1.42;;
59263;SDS011;45030;42.720;23.344;2023-08-06T08:24:59;2.77;;;1.40;;
59263;SDS011;45030;42.720;23.344;2023-08-06T08:27:24;2.63;;;1.90;;
59263;SDS011;45030;42.720;23.344;2023-08-06T08:29:49;2.83;;;2.00;;
59263;SDS011;45030;42.720;23.344;2023-08-06T08:32:14;5.35;;;2.10;;
59263;SDS011;45030;42.720;23.344;2023-08-06T08:34:40;3.33;;;1.70;;
59263;SDS011;45030;42.720;23.344;2023-08-06T08:37:05;4.00;;;2.07;;
59263;SDS011;45030;42.720;23.344;2023-08-06T08:39:31;2.42;;;1.48;;
59263;SDS011;45030;42.720;23.344;2023-08-06T08:41:56;2.95;;;1.92;;
59263;SDS011;45030;42.720;23.344;2023-08-06T08:44:21;2.40;;;1.60;;
59263;SDS011;45030;42.720;23.344;2023-08-06T08:46:48;3.83;;;1.88;;
59263;SDS011;45030;42.720;23.344;2023-08-06T08:49:14;2.83;;;2.00;;
